Time;durP1;ratioP1;P1;durP2;ratioP2;P2;SDS_P1;SDS_P2;PMS_P1;PMS_P2;Temp;Humidity;BMP_temperature;BMP_pressure;BME280_temperature;BME280_humidity;BME280_pressure;Samples;Min_cycle;Max_cycle;Signal;HPM_P1;HPM_P2
2022/01/15 00:00:41;;;;;;;4.67;1.67;;;;;;;-0.60;98.18;97153.47;5085174;28;20119;-66
2022/01/15 00:03:10;;;;;;;4.63;1.50;;;;;;;-0.61;97.97;97181.94;5076955;28;20446;-66
2022/01/15 00:05:39;;;;;;;8.20;1.73;;;;;;;-0.63;98.28;97163.91;5073382;28;20358;-66
2022/01/15 00:08:07;;;;;;;8.70;1.87;;;;;;;-0.64;98.12;97182.03;5084636;28;20041;-65
2022/01/15 00:10:34;;;;;;;6.03;1.83;;;;;;;-0.61;98.26;97177.59;5086048;28;20075;-65
2022/01/15 00:13:03;;;;;;;21.63;3.53;;;;;;;-0.58;98.20;97181.84;5077278;28;20058;-67
2022/01/15 00:15:33;;;;;;;7.30;2.20;;;;;;;-0.57;98.72;97183.50;5079501;28;20052;-66
2022/01/15 00:18:04;;;;;;;5.93;1.40;;;;;;;-0.59;98.83;97174.94;5081277;28;20512;-66
2022/01/15 00:20:31;;;;;;;8.60;2.00;;;;;;;-0.57;98.66;97186.09;5081047;28;20040;-66
2022/01/15 00:23:00;;;;;;;5.90;1.50;;;;;;;-0.63;97.81;97200.06;5077328;28;20119;-65
2022/01/15 00:25:29;;;;;;;5.17;2.60;;;;;;;-0.63;98.14;97187.16;5082471;28;20041;-66
2022/01/15 00:27:56;;;;;;;6.27;1.70;;;;;;;-0.65;98.49;97201.00;5080570;28;20045;-66
2022/01/15 00:30:24;;;;;;;9.17;2.03;;;;;;;-0.63;98.79;97215.56;5062195;28;20083;-66
2022/01/15 00:32:52;;;;;;;5.53;1.57;;;;;;;-0.64;99.17;97189.78;5081212;28;20055;-66
2022/01/15 00:35:21;;;;;;;9.20;2.43;;;;;;;-0.68;97.71;97194.19;5082682;28;20564;-66
2022/01/15 00:37:48;;;;;;;3.20;1.70;;;;;;;-0.64;97.88;97219.03;5075219;28;20049;-66
2022/01/15 00:40:19;;;;;;;7.00;1.67;;;;;;;-0.64;98.82;97205.28;5083873;28;20574;-65
2022/01/15 00:42:46;;;;;;;7.30;2.30;;;;;;;-0.65;98.53;97204.41;5082156;28;20037;-66
2022/01/15 00:45:18;;;;;;;7.07;2.23;;;;;;;-0.67;98.24;97193.31;5080903;28;20039;-66
2022/01/15 00:47:45;;;;;;;5.87;1.90;;;;;;;-0.63;97.93;97219.84;5081132;28;20485;-66
2022/01/15 00:50:13;;;;;;;6.23;1.97;;;;;;;-0.61;98.78;97220.66;5076860;28;20492;-66
2022/01/15 00:52:42;;;;;;;3.37;1.37;;;;;;;-0.67;98.24;97220.84;5075194;28;20106;-66
2022/01/15 00:55:10;;;;;;;9.97;3.93;;;;;;;-0.68;98.41;97238.09;5079432;28;20136;-66
2022/01/15 00:57:39;;;;;;;7.07;1.77;;;;;;;-0.63;98.80;97238.78;5080011;28;20036;-66
2022/01/15 01:00:11;;;;;;;4.77;2.03;;;;;;;-0.60;97.95;97219.78;5076007;28;20039;-65
2022/01/15 01:02:38;;;;;;;8.17;2.13;;;;;;;-0.62;98.35;97231.88;5078464;28;20429;-65
2022/01/15 01:05:06;;;;;;;6.93;1.80;;;;;;;-0.60;98.11;97246.44;5085945;28;20056;-65
2022/01/15 01:07:33;;;;;;;11.40;2.23;;;;;;;-0.63;98.18;97232.78;5080550;28;20392;-66
2022/01/15 01:10:16;;;;;;;7.23;2.00;;;;;;;-0.63;98.55;97240.53;5083236;28;20044;-66
2022/01/15 01:13:09;;;;;;;4.63;1.77;;;;;;;-0.64;98.21;97244.88;5077710;28;20127;-66
2022/01/15 01:21:35;;;;;;;5.67;1.70;;;;;;;-0.68;97.65;97227.75;5077958;28;20107;-65
2022/01/15 01:24:01;;;;;;;4.60;1.90;;;;;;;-0.63;97.64;97209.53;5078459;28;20405;-65
2022/01/15 01:26:39;;;;;;;4.10;1.40;;;;;;;-0.66;97.33;97230.28;5087609;28;20044;-65
2022/01/15 01:29:18;;;;;;;4.73;2.90;;;;;;;-0.66;96.94;97212.22;5079960;28;20043;-66
2022/01/15 01:31:56;;;;;;;7.80;1.50;;;;;;;-0.66;96.59;97223.41;5081985;28;20450;-65
2022/01/15 01:34:29;;;;;;;6.13;1.67;;;;;;;-0.67;96.44;97229.47;5078636;28;20051;-66
2022/01/15 01:37:08;;;;;;;5.37;2.10;;;;;;;-0.67;96.73;97249.25;5081716;28;20169;-65
2022/01/15 01:39:44;;;;;;;5.30;1.70;;;;;;;-0.67;97.59;97221.72;5076530;28;20145;-66
2022/01/15 01:42:32;;;;;;;6.70;1.33;;;;;;;-0.68;98.35;97220.00;5078870;28;20409;-66
2022/01/15 01:45:06;;;;;;;3.90;2.23;;;;;;;-0.75;98.96;97231.47;5080455;28;20048;-66
2022/01/15 01:47:40;;;;;;;12.57;2.10;;;;;;;-0.76;99.01;97216.00;5082282;28;20131;-66
2022/01/15 01:50:13;;;;;;;2.97;1.67;;;;;;;-0.78;98.61;97223.81;5079239;28;20050;-66
2022/01/15 01:52:41;;;;;;;7.50;2.00;;;;;;;-0.79;99.07;97232.41;5084364;28;20074;-66
2022/01/15 01:55:09;;;;;;;6.83;3.33;;;;;;;-0.81;100.00;97239.38;5085114;28;20044;-66
2022/01/15 01:57:37;;;;;;;3.07;1.30;;;;;;;-0.83;100.00;97230.84;5083077;28;20127;-66
2022/01/15 02:00:08;;;;;;;6.90;1.83;;;;;;;-0.85;100.00;97239.53;5083966;28;20032;-66
2022/01/15 02:02:44;;;;;;;7.37;2.37;;;;;;;-0.86;100.00;97243.88;5080001;28;20120;-66
2022/01/15 02:05:12;;;;;;;6.27;2.47;;;;;;;-0.92;100.00;97238.88;5082137;28;20044;-65
2022/01/15 02:07:40;;;;;;;4.70;1.80;;;;;;;-0.94;100.00;97243.25;5064947;28;20055;-66
2022/01/15 02:10:09;;;;;;;4.40;1.70;;;;;;;-0.95;100.00;97244.13;5084655;28;20063;-66
2022/01/15 02:12:37;;;;;;;6.27;2.43;;;;;;;-0.92;100.00;97241.47;5088182;28;20059;-65
2022/01/15 02:15:12;;;;;;;6.43;1.97;;;;;;;-0.92;100.00;97251.78;5088086;28;20055;-66
2022/01/15 02:17:39;;;;;;;8.53;2.37;;;;;;;-0.93;100.00;97249.25;5086743;28;20388;-66
2022/01/15 02:20:34;;;;;;;3.67;1.67;;;;;;;-0.97;100.00;97256.28;5077070;28;20041;-66
2022/01/15 02:25:49;;;;;;;10.20;2.30;;;;;;;-1.00;100.00;97258.94;5079538;28;20032;-66
2022/01/15 02:28:18;;;;;;;7.47;2.17;;;;;;;-1.01;100.00;97257.25;5081124;28;20129;-65
2022/01/15 02:30:45;;;;;;;6.40;2.60;;;;;;;-0.99;100.00;97252.88;5081510;28;20392;-65
2022/01/15 02:33:12;;;;;;;6.07;2.37;;;;;;;-1.03;100.00;97255.59;5084820;28;20500;-65
2022/01/15 02:35:40;;;;;;;7.77;2.50;;;;;;;-1.02;100.00;97265.88;5085241;28;20504;-65
2022/01/15 02:38:09;;;;;;;5.97;3.00;;;;;;;-1.00;100.00;97255.50;5083255;28;20425;-66
2022/01/15 02:40:37;;;;;;;7.67;3.00;;;;;;;-1.00;100.00;97271.84;5084473;28;20044;-65
2022/01/15 02:43:04;;;;;;;9.87;2.70;;;;;;;-1.04;100.00;97259.06;5078450;28;20511;-65
2022/01/15 02:45:34;;;;;;;10.33;1.90;;;;;;;-1.05;100.00;97267.72;5087062;28;20097;-66
2022/01/15 02:48:10;;;;;;;7.33;2.50;;;;;;;-1.07;100.00;97274.66;5077982;28;20495;-66
2022/01/15 02:50:37;;;;;;;7.30;2.27;;;;;;;-1.07;100.00;97272.91;5081277;28;20127;-66
2022/01/15 02:53:06;;;;;;;8.03;2.30;;;;;;;-1.08;100.00;97258.34;5091376;28;20071;-66
2022/01/15 02:55:33;;;;;;;7.17;2.43;;;;;;;-1.08;100.00;97260.91;5087074;28;20480;-66
2022/01/15 02:58:00;;;;;;;5.20;3.23;;;;;;;-1.08;100.00;97253.16;5088896;28;20040;-66
2022/01/15 03:00:28;;;;;;;7.37;2.97;;;;;;;-1.13;100.00;97256.78;5088828;28;20032;-66
2022/01/15 03:02:55;;;;;;;7.20;2.40;;;;;;;-1.10;100.00;97257.53;5091013;28;20128;-66
2022/01/15 03:05:22;;;;;;;12.33;3.73;;;;;;;-1.06;100.00;97255.72;5077221;28;20489;-66
2022/01/15 03:07:49;;;;;;;9.07;3.67;;;;;;;-1.09;100.00;97256.63;5083467;28;20123;-66
2022/01/15 03:10:18;;;;;;;9.43;3.80;;;;;;;-1.07;100.00;97251.41;5091447;28;20067;-66
2022/01/15 03:12:45;;;;;;;5.13;2.00;;;;;;;-1.09;100.00;97230.81;5082387;28;20117;-66
2022/01/15 03:15:18;;;;;;;8.70;2.57;;;;;;;-1.12;100.00;97261.03;5085484;28;20117;-66
2022/01/15 03:17:45;;;;;;;7.25;2.70;;;;;;;-1.10;100.00;97251.50;5087974;28;20492;-66
2022/01/15 03:20:14;;;;;;;5.83;2.50;;;;;;;-1.13;100.00;97249.03;5090734;28;20035;-66
2022/01/15 03:22:41;;;;;;;7.20;3.43;;;;;;;-1.16;100.00;97265.44;5077296;28;20098;-66
2022/01/15 03:25:09;;;;;;;8.20;2.83;;;;;;;-1.14;100.00;97253.34;5081889;28;20464;-67
2022/01/15 03:27:38;;;;;;;8.03;2.90;;;;;;;-1.14;100.00;97253.34;5083674;28;20036;-66
2022/01/15 03:30:07;;;;;;;8.47;2.20;;;;;;;-1.18;100.00;97256.06;5086858;28;20072;-66
2022/01/15 03:32:34;;;;;;;9.00;3.13;;;;;;;-1.18;100.00;97238.84;5084654;28;20046;-66
2022/01/15 03:35:01;;;;;;;5.67;2.93;;;;;;;-1.20;100.00;97248.38;5082629;28;20039;-66
2022/01/15 03:37:28;;;;;;;9.70;3.00;;;;;;;-1.19;100.00;97226.84;5081872;28;20393;-66
2022/01/15 03:39:56;;;;;;;11.80;2.90;;;;;;;-1.16;100.00;97256.88;5090159;28;20040;-66
2022/01/15 03:42:24;;;;;;;6.87;3.13;;;;;;;-1.19;100.00;97250.06;5075839;28;20051;-66
2022/01/15 03:44:52;;;;;;;8.03;2.93;;;;;;;-1.20;100.00;97269.00;5080627;28;20049;-66
2022/01/15 03:47:19;;;;;;;3.47;2.53;;;;;;;-1.20;100.00;97248.38;5081886;28;20041;-66
2022/01/15 03:49:46;;;;;;;8.07;3.23;;;;;;;-1.24;100.00;97257.09;5083629;28;20139;-66
2022/01/15 03:52:13;;;;;;;7.70;2.27;;;;;;;-1.26;100.00;97237.41;5086990;28;20052;-66
2022/01/15 03:54:41;;;;;;;4.33;2.43;;;;;;;-1.26;100.00;97268.34;5082142;28;20125;-66
2022/01/15 03:57:08;;;;;;;7.63;3.10;;;;;;;-1.27;100.00;97261.50;5088463;28;20493;-66
2022/01/15 03:59:35;;;;;;;6.80;2.70;;;;;;;-1.28;100.00;97276.13;5085481;28;20028;-66
2022/01/15 04:02:04;;;;;;;12.63;3.77;;;;;;;-1.27;100.00;97275.25;5079417;28;20139;-66
2022/01/15 04:04:31;;;;;;;17.03;2.97;;;;;;;-1.29;100.00;97268.44;5085812;28;20059;-66
2022/01/15 04:06:58;;;;;;;11.13;3.33;;;;;;;-1.33;100.00;97282.31;5083992;28;20036;-65
2022/01/15 04:09:25;;;;;;;11.33;3.70;;;;;;;-1.38;100.00;97261.81;5084989;28;20127;-65
2022/01/15 04:11:52;;;;;;;9.83;3.20;;;;;;;-1.36;100.00;97261.78;5075920;28;20052;-66
2022/01/15 04:14:19;;;;;;;9.53;2.77;;;;;;;-1.33;100.00;97267.69;5082718;28;20185;-66
2022/01/15 04:16:46;;;;;;;9.67;3.73;;;;;;;-1.38;100.00;97264.38;5074281;28;20094;-66
2022/01/15 04:19:14;;;;;;;11.97;3.33;;;;;;;-1.37;100.00;97268.69;5077243;28;20124;-66
2022/01/15 04:21:41;;;;;;;8.00;3.07;;;;;;;-1.41;100.00;97271.38;5082511;28;20051;-66
2022/01/15 04:24:08;;;;;;;8.57;3.60;;;;;;;-1.41;100.00;97264.50;5083862;28;20097;-66
2022/01/15 04:26:35;;;;;;;11.40;2.97;;;;;;;-1.43;100.00;97237.91;5079131;28;20032;-66
2022/01/15 04:29:04;;;;;;;6.33;2.60;;;;;;;-1.47;100.00;97285.31;5074549;28;20075;-66
2022/01/15 04:31:45;;;;;;;10.27;4.27;;;;;;;-1.57;100.00;97290.78;5078926;28;20047;-66
2022/01/15 04:34:15;;;;;;;9.83;2.83;;;;;;;-1.54;100.00;97283.78;5079733;28;20094;-65
2022/01/15 04:36:42;;;;;;;10.80;3.60;;;;;;;-1.51;100.00;97299.19;5081649;28;20501;-66
2022/01/15 04:39:10;;;;;;;8.40;2.80;;;;;;;-1.45;100.00;97293.88;5087974;28;20448;-66
2022/01/15 04:41:37;;;;;;;16.13;4.37;;;;;;;-1.44;100.00;97290.38;5079677;28;20282;-65
2022/01/15 04:44:05;;;;;;;14.03;4.33;;;;;;;-1.47;100.00;97294.75;5084612;28;20444;-66
2022/01/15 04:46:32;;;;;;;9.87;3.93;;;;;;;-1.45;100.00;97299.03;5091153;28;20040;-66
2022/01/15 04:48:59;;;;;;;18.63;5.03;;;;;;;-1.42;100.00;97283.44;5078991;28;20044;-66
2022/01/15 04:51:28;;;;;;;11.57;3.50;;;;;;;-1.52;100.00;97292.34;5075030;28;20040;-66
2022/01/15 04:53:55;;;;;;;8.87;2.67;;;;;;;-1.53;100.00;97306.09;5076841;28;20037;-66
2022/01/15 04:56:22;;;;;;;8.40;2.90;;;;;;;-1.53;100.00;97308.69;5081533;28;20036;-64
2022/01/15 04:58:49;;;;;;;11.47;3.17;;;;;;;-1.54;100.00;97314.75;5075135;28;20054;-64
2022/01/15 05:01:16;;;;;;;9.93;3.60;;;;;;;-1.53;100.00;97324.16;5078155;28;20115;-65
2022/01/15 05:03:43;;;;;;;6.23;3.17;;;;;;;-1.52;100.00;97318.13;5073572;28;20562;-64
2022/01/15 05:06:10;;;;;;;13.27;3.33;;;;;;;-1.56;100.00;97319.09;5070557;28;20036;-64
2022/01/15 05:08:40;;;;;;;9.80;3.17;;;;;;;-1.53;100.00;97323.34;5082080;28;20040;-64
2022/01/15 05:11:14;;;;;;;8.07;2.80;;;;;;;-1.54;100.00;97329.34;5076271;28;20033;-64
2022/01/15 05:13:42;;;;;;;9.70;3.37;;;;;;;-1.52;100.00;97304.38;5088536;28;20123;-64
2022/01/15 05:16:09;;;;;;;8.23;2.93;;;;;;;-1.50;100.00;97324.06;5085339;28;20056;-64
2022/01/15 05:18:36;;;;;;;7.03;3.83;;;;;;;-1.44;100.00;97315.31;5088902;28;20043;-64
2022/01/15 05:21:03;;;;;;;8.10;2.93;;;;;;;-1.47;100.00;97326.56;5081072;28;20060;-64
2022/01/15 05:23:30;;;;;;;7.70;3.43;;;;;;;-1.48;100.00;97339.50;5074957;28;20048;-65
2022/01/15 05:25:59;;;;;;;11.50;4.40;;;;;;;-1.45;100.00;97342.88;5082505;28;20139;-65
2022/01/15 05:28:26;;;;;;;10.37;3.80;;;;;;;-1.49;100.00;97332.66;5076191;28;20036;-65
2022/01/15 05:30:52;;;;;;;16.33;3.73;;;;;;;-1.54;100.00;97308.72;5088261;28;20045;-64
2022/01/15 05:33:19;;;;;;;16.33;3.13;;;;;;;-1.52;100.00;97348.22;5078012;28;20484;-64
2022/01/15 05:35:46;;;;;;;12.93;3.83;;;;;;;-1.55;100.00;97344.00;5077338;28;20094;-65
2022/01/15 05:38:13;;;;;;;10.40;3.13;;;;;;;-1.51;100.00;97322.41;5078012;28;20492;-65
2022/01/15 05:40:40;;;;;;;6.67;3.37;;;;;;;-1.53;100.00;97355.09;5080570;28;20063;-65
2022/01/15 05:43:09;;;;;;;8.93;3.70;;;;;;;-1.54;100.00;97352.56;5078341;28;20123;-66
2022/01/15 05:45:36;;;;;;;8.47;3.07;;;;;;;-1.53;100.00;97343.97;5089682;28;20577;-65
2022/01/15 05:48:03;;;;;;;10.97;2.60;;;;;;;-1.54;100.00;97356.00;5081478;28;20054;-66
2022/01/15 05:50:30;;;;;;;16.73;3.63;;;;;;;-1.57;100.00;97360.41;5072361;28;20052;-66
2022/01/15 05:52:58;;;;;;;8.60;2.43;;;;;;;-1.63;100.00;97371.75;5084139;28;20091;-66
2022/01/15 05:55:25;;;;;;;10.43;2.97;;;;;;;-1.64;100.00;97367.44;5081201;28;20048;-66
2022/01/15 05:57:52;;;;;;;9.23;3.17;;;;;;;-1.59;100.00;97367.34;5084850;28;20056;-65
2022/01/15 06:00:21;;;;;;;7.33;2.63;;;;;;;-1.57;100.00;97361.25;5081185;28;20040;-66
2022/01/15 06:02:48;;;;;;;12.83;3.80;;;;;;;-1.58;100.00;97364.72;5076042;28;20052;-66
2022/01/15 06:05:15;;;;;;;7.83;2.77;;;;;;;-1.58;100.00;97366.44;5078709;28;20037;-66
2022/01/15 06:07:42;;;;;;;6.90;2.33;;;;;;;-1.56;100.00;97375.00;5076853;28;20044;-66
2022/01/15 06:10:09;;;;;;;6.23;3.40;;;;;;;-1.54;100.00;97379.22;5083692;28;20113;-66
2022/01/15 06:12:42;;;;;;;9.80;3.33;;;;;;;-1.52;100.00;97358.53;5079085;28;20044;-66
2022/01/15 06:15:11;;;;;;;8.73;3.15;;;;;;;-1.47;100.00;97378.16;5083082;28;20051;-66
2022/01/15 06:17:39;;;;;;;11.73;4.17;;;;;;;-1.46;100.00;97372.09;5085625;28;20449;-65
2022/01/15 06:20:08;;;;;;;11.80;4.23;;;;;;;-1.43;100.00;97384.06;5079258;28;20032;-65
2022/01/15 06:22:35;;;;;;;15.10;3.57;;;;;;;-1.47;100.00;97393.63;5090297;28;20110;-65
2022/01/15 06:25:03;;;;;;;9.27;3.63;;;;;;;-1.40;100.00;97374.53;5079850;28;20051;-65
2022/01/15 06:27:30;;;;;;;14.77;3.33;;;;;;;-1.42;100.00;97386.59;5074113;28;20507;-65
2022/01/15 06:29:58;;;;;;;12.03;3.60;;;;;;;-1.39;100.00;97394.28;5076716;28;20039;-66
2022/01/15 06:32:25;;;;;;;7.97;3.07;;;;;;;-1.39;100.00;97385.72;5069135;28;20044;-66
2022/01/15 06:34:54;;;;;;;9.43;3.63;;;;;;;-1.41;100.00;97392.63;5076054;28;20120;-66
2022/01/15 06:37:22;;;;;;;10.53;3.90;;;;;;;-1.35;100.00;97395.88;5078415;28;20058;-66
2022/01/15 06:39:49;;;;;;;12.57;4.83;;;;;;;-1.36;100.00;97409.66;5091584;28;20139;-66
2022/01/15 06:42:16;;;;;;;11.53;4.27;;;;;;;-1.35;100.00;97403.63;5081740;28;20071;-67
2022/01/15 06:44:43;;;;;;;17.00;5.73;;;;;;;-1.38;100.00;97379.66;5090975;28;20043;-66
2022/01/15 06:47:10;;;;;;;8.73;4.00;;;;;;;-1.37;100.00;97389.06;5086179;28;20040;-66
2022/01/15 06:49:37;;;;;;;10.07;3.10;;;;;;;-1.34;100.00;97409.63;5081923;28;20047;-66
2022/01/15 06:52:06;;;;;;;17.77;4.43;;;;;;;-1.31;100.00;97400.06;5083050;28;20123;-66
2022/01/15 06:54:33;;;;;;;11.87;3.60;;;;;;;-1.29;100.00;97411.19;5084309;28;20480;-66
2022/01/15 06:57:00;;;;;;;8.00;2.93;;;;;;;-1.29;100.00;97415.50;5086373;28;20136;-68
2022/01/15 06:59:27;;;;;;;15.87;4.20;;;;;;;-1.30;100.00;97416.41;5079849;28;20514;-65
2022/01/15 07:01:54;;;;;;;10.33;3.67;;;;;;;-1.29;100.00;97424.09;5072029;28;20127;-65
2022/01/15 07:04:22;;;;;;;14.13;4.10;;;;;;;-1.27;100.00;97419.72;5072721;28;20098;-66
2022/01/15 07:06:49;;;;;;;11.67;3.23;;;;;;;-1.24;100.00;97411.91;5078954;28;20473;-66
2022/01/15 07:09:17;;;;;;;8.17;3.87;;;;;;;-1.22;100.00;97429.94;5085590;28;20522;-68
2022/01/15 07:11:44;;;;;;;11.77;4.03;;;;;;;-1.21;100.00;97429.03;5086431;28;20119;-69
2022/01/15 07:14:11;;;;;;;8.77;4.00;;;;;;;-1.21;99.78;97406.66;5087045;28;20070;-69
2022/01/15 07:16:38;;;;;;;9.57;3.70;;;;;;;-1.24;99.98;97440.28;5081901;28;20063;-66
2022/01/15 07:19:05;;;;;;;9.17;3.50;;;;;;;-1.17;100.00;97441.00;5078439;28;20040;-68
2022/01/15 07:21:32;;;;;;;11.97;4.40;;;;;;;-1.11;99.92;97444.25;5084994;28;20102;-70
2022/01/15 07:23:59;;;;;;;12.30;3.37;;;;;;;-1.10;100.00;97422.69;5083698;28;20048;-65
2022/01/15 07:26:27;;;;;;;14.73;4.10;;;;;;;-1.11;100.00;97428.75;5084713;28;20125;-66
2022/01/15 07:28:55;;;;;;;17.97;5.73;;;;;;;-0.99;100.00;97436.16;5082642;28;20522;-65
2022/01/15 07:31:22;;;;;;;14.87;3.70;;;;;;;-1.00;99.36;97426.72;5085412;28;20040;-66
2022/01/15 07:33:49;;;;;;;10.33;4.10;;;;;;;-1.04;99.59;97448.34;5084397;28;20040;-67
2022/01/15 07:36:17;;;;;;;15.13;4.23;;;;;;;-0.92;99.40;97422.19;5078593;28;20123;-66
2022/01/15 07:38:44;;;;;;;7.40;3.60;;;;;;;-1.01;98.33;97444.81;5081402;28;20060;-65
2022/01/15 07:41:13;;;;;;;20.17;4.57;;;;;;;-1.03;98.85;97431.97;5082206;28;20048;-66
2022/01/15 07:43:43;;;;;;;13.67;3.93;;;;;;;-1.00;99.11;97451.69;5079455;28;20504;-65
2022/01/15 07:46:10;;;;;;;16.73;3.83;;;;;;;-0.98;98.09;97449.91;5084036;28;20052;-65
2022/01/15 07:48:37;;;;;;;8.10;3.40;;;;;;;-0.96;98.36;97458.44;5084910;28;20492;-66
2022/01/15 07:51:04;;;;;;;15.10;4.93;;;;;;;-0.93;98.42;97445.44;5082022;28;20044;-66
2022/01/15 07:53:31;;;;;;;15.10;4.27;;;;;;;-0.97;98.19;97436.97;5075103;28;20098;-66
2022/01/15 07:55:59;;;;;;;10.77;3.93;;;;;;;-0.91;97.76;97441.09;5080354;28;20079;-67
2022/01/15 07:58:26;;;;;;;13.00;3.97;;;;;;;-0.92;97.27;97421.31;5078087;28;20527;-67
2022/01/15 08:00:54;;;;;;;22.20;3.63;;;;;;;-0.89;97.56;97460.81;5080702;28;20072;-67
2022/01/15 08:03:21;;;;;;;7.67;3.50;;;;;;;-0.88;97.13;97448.75;5078563;28;20477;-66
2022/01/15 08:05:48;;;;;;;14.00;4.80;;;;;;;-0.80;97.30;97441.66;5081202;28;20045;-68
2022/01/15 08:08:16;;;;;;;9.93;3.23;;;;;;;-0.85;97.05;97439.19;5083661;28;20051;-69
2022/01/15 08:10:44;;;;;;;9.03;3.07;;;;;;;-0.81;96.90;97447.69;5083995;28;20486;-68
2022/01/15 08:13:11;;;;;;;9.27;3.40;;;;;;;-0.70;97.46;97462.00;5080690;28;20075;-68
2022/01/15 08:15:38;;;;;;;11.90;4.03;;;;;;;-0.64;97.21;97445.47;5074526;28;20135;-67
2022/01/15 08:18:07;;;;;;;8.93;3.53;;;;;;;-0.59;96.57;97449.59;5084561;28;20047;-71
2022/01/15 08:20:34;;;;;;;9.80;4.17;;;;;;;-0.58;95.68;97435.78;5084662;28;20048;-74
2022/01/15 08:23:01;;;;;;;9.03;5.53;;;;;;;-0.61;95.34;97456.53;5076911;28;20037;-72
2022/01/15 08:25:28;;;;;;;10.43;4.03;;;;;;;-0.65;95.66;97442.03;5085103;28;20116;-71
2022/01/15 08:27:56;;;;;;;10.43;4.23;;;;;;;-0.63;95.97;97436.81;5081786;28;20048;-70
2022/01/15 08:30:23;;;;;;;11.27;5.50;;;;;;;-0.65;96.17;97448.94;5090984;28;20910;-67
2022/01/15 08:32:50;;;;;;;11.80;3.60;;;;;;;-0.49;95.93;97429.50;5078740;28;20060;-68
2022/01/15 08:35:19;;;;;;;14.33;4.00;;;;;;;-0.57;96.35;97458.13;5081920;28;20774;-73
2022/01/15 08:37:50;;;;;;;10.63;4.17;;;;;;;-0.69;96.14;97432.69;5090246;28;20063;-77
2022/01/15 08:40:20;;;;;;;7.57;3.60;;;;;;;-0.59;96.22;97467.69;5091383;28;20411;-69
2022/01/15 08:42:48;;;;;;;12.37;4.13;;;;;;;-0.49;96.29;97469.13;5085319;28;20044;-65
2022/01/15 08:45:16;;;;;;;11.47;3.47;;;;;;;-0.44;95.89;97476.72;5075157;28;20101;-65
2022/01/15 08:47:43;;;;;;;9.30;3.90;;;;;;;-0.56;95.98;97452.09;5072309;28;20599;-69
2022/01/15 08:50:12;;;;;;;13.60;4.40;;;;;;;-0.56;96.10;97475.34;5078478;28;20043;-69
2022/01/15 08:52:41;;;;;;;10.63;2.90;;;;;;;-0.50;95.98;97485.50;5069352;28;20040;-73
2022/01/15 08:55:10;;;;;;;12.00;4.37;;;;;;;-0.41;95.94;97464.56;5077992;28;20114;-74
2022/01/15 08:57:37;;;;;;;7.67;3.33;;;;;;;-0.30;95.80;97482.31;5084378;28;20048;-81
2022/01/15 09:00:06;;;;;;;9.00;4.07;;;;;;;-0.22;94.89;97462.25;5073246;28;20072;-77
2022/01/15 09:02:33;;;;;;;12.33;4.70;;;;;;;-0.08;94.69;97479.03;5075106;28;20044;-80
2022/01/15 09:05:01;;;;;;;16.07;4.13;;;;;;;0.09;93.67;97487.09;5086933;28;20048;-82
2022/01/15 09:07:28;;;;;;;10.97;4.43;;;;;;;0.16;93.72;97465.31;5085455;28;20036;-81
2022/01/15 09:09:56;;;;;;;13.40;3.90;;;;;;;0.05;93.35;97459.66;5076082;28;20056;-74
2022/01/15 09:12:23;;;;;;;14.37;4.57;;;;;;;-0.01;93.47;97490.03;5080398;28;20068;-71
2022/01/15 09:14:52;;;;;;;11.27;3.77;;;;;;;0.02;93.89;97471.84;5077960;28;20052;-75
2022/01/15 09:17:19;;;;;;;16.73;4.37;;;;;;;0.60;92.22;97487.16;5088941;28;20048;-80
2022/01/15 09:19:46;;;;;;;16.87;4.07;;;;;;;0.66;90.03;97472.28;5089106;28;20176;-78
2022/01/15 09:22:13;;;;;;;11.33;3.97;;;;;;;0.30;90.69;97472.63;5079850;28;20058;-74
2022/01/15 09:24:44;;;;;;;9.27;4.20;;;;;;;0.18;91.46;97476.47;5076148;28;20050;-72
2022/01/15 09:30:13;;;;;;;12.87;4.37;;;;;;;0.26;90.57;97478.81;5075873;28;20037;-78
2022/01/15 09:32:40;;;;;;;15.10;4.60;;;;;;;0.18;91.27;97463.53;5072881;28;20388;-77
2022/01/15 09:35:09;;;;;;;5.83;2.97;;;;;;;0.01;91.75;97452.88;5086605;28;20066;-81
2022/01/15 09:37:38;;;;;;;13.40;4.23;;;;;;;0.00;91.85;97466.72;5079633;28;20074;-68
2022/01/15 09:40:07;;;;;;;11.13;4.17;;;;;;;0.10;91.50;97464.69;5079959;28;20106;-75
2022/01/15 09:42:38;;;;;;;7.17;3.37;;;;;;;0.14;91.78;97474.88;5079139;28;20123;-76
2022/01/15 09:45:07;;;;;;;12.57;4.40;;;;;;;0.31;91.02;97477.75;5082353;28;20040;-75
2022/01/15 09:47:35;;;;;;;8.53;3.73;;;;;;;0.47;91.10;97471.19;5084047;28;20040;-75
2022/01/15 09:50:05;;;;;;;10.23;4.57;;;;;;;0.78;89.89;97464.06;5083273;28;20409;-76
2022/01/15 09:52:33;;;;;;;17.40;3.93;;;;;;;0.45;90.08;97462.63;5090344;28;20079;-66
2022/01/15 09:55:00;;;;;;;9.60;3.47;;;;;;;0.30;90.90;97470.03;5069538;28;20045;-73
2022/01/15 09:57:27;;;;;;;15.90;5.17;;;;;;;0.10;91.66;97472.44;5090132;28;20048;-76
2022/01/15 09:59:56;;;;;;;9.57;3.50;;;;;;;-0.03;92.34;97471.97;5072056;28;20044;-75
2022/01/15 10:02:23;;;;;;;11.33;3.90;;;;;;;0.50;90.95;97478.88;5084954;28;20565;-77
2022/01/15 10:04:50;;;;;;;10.13;4.03;;;;;;;0.66;88.85;97474.00;5075422;28;20044;-77
2022/01/15 10:07:19;;;;;;;16.57;5.17;;;;;;;0.83;88.39;97476.88;5087863;28;20123;-78
2022/01/15 10:09:48;;;;;;;17.27;5.50;;;;;;;0.45;89.13;97452.28;5082356;28;20041;-71
2022/01/15 10:12:25;;;;;;;9.30;4.30;;;;;;;0.22;89.56;97482.38;5079376;28;20064;-72
2022/01/15 10:14:54;;;;;;;18.40;4.83;;;;;;;0.18;90.03;97468.72;5074960;28;20563;-76
2022/01/15 10:17:24;;;;;;;12.60;3.83;;;;;;;0.46;89.87;97485.00;5078480;28;20560;-67
2022/01/15 10:19:52;;;;;;;10.43;4.87;;;;;;;1.29;87.75;97461.38;5086149;28;20036;-74
2022/01/15 10:22:21;;;;;;;11.33;3.53;;;;;;;1.54;85.04;97446.59;5093331;28;20036;-71
2022/01/15 10:24:55;;;;;;;14.27;4.03;;;;;;;1.03;85.06;97454.56;5093326;28;20044;-68
2022/01/15 10:27:25;;;;;;;11.13;4.20;;;;;;;1.00;85.95;97453.78;5091327;28;20047;-67
2022/01/15 10:29:56;;;;;;;16.87;4.60;;;;;;;1.91;83.43;97446.88;5088047;28;20052;-66
2022/01/15 10:32:25;;;;;;;13.37;4.57;;;;;;;1.94;81.85;97454.53;5072356;28;20560;-66
2022/01/15 10:34:53;;;;;;;7.37;3.57;;;;;;;1.62;81.91;97472.25;5073086;28;20450;-68
2022/01/15 10:37:23;;;;;;;9.23;3.33;;;;;;;1.02;85.15;97467.56;5072575;28;20060;-70
2022/01/15 10:40:04;;;;;;;8.77;3.63;;;;;;;1.24;85.57;97482.28;5078574;28;20118;-70
2022/01/15 10:42:32;;;;;;;8.50;3.40;;;;;;;1.85;83.74;97469.63;5082970;28;20465;-72
2022/01/15 10:45:01;;;;;;;8.60;3.50;;;;;;;1.79;80.77;97477.63;5079965;28;20054;-72
2022/01/15 10:47:30;;;;;;;9.40;3.30;;;;;;;1.65;80.87;97477.28;5085171;28;20040;-71
2022/01/15 10:50:03;;;;;;;6.53;3.10;;;;;;;0.96;83.74;97466.03;5080407;28;20040;-71
2022/01/15 10:52:30;;;;;;;10.80;3.70;;;;;;;0.60;85.35;97480.22;5084755;28;20036;-72
2022/01/15 10:55:01;;;;;;;14.30;4.93;;;;;;;0.66;86.15;97481.75;5094137;28;20046;-72
2022/01/15 10:57:34;;;;;;;9.90;4.00;;;;;;;0.79;86.11;97483.06;5082787;28;20423;-72
2022/01/15 11:00:26;;;;;;;14.25;5.00;;;;;;;1.29;84.85;97497.63;5076960;28;20040;-71
2022/01/15 11:02:56;;;;;;;15.23;4.83;;;;;;;1.59;83.46;97496.50;5082526;28;20051;-71
2022/01/15 11:05:28;;;;;;;12.80;4.73;;;;;;;0.94;84.22;97511.00;5092499;28;20078;-71
2022/01/15 11:08:14;;;;;;;7.70;4.43;;;;;;;0.80;85.60;97502.84;5082458;28;20044;-71
2022/01/15 11:10:44;;;;;;;15.83;4.27;;;;;;;0.67;86.31;97505.00;5083712;28;20155;-71
2022/01/15 11:13:14;;;;;;;9.37;3.53;;;;;;;0.90;85.26;97512.84;5094284;28;20032;-73
2022/01/15 11:15:43;;;;;;;15.37;4.30;;;;;;;0.97;84.70;97503.97;5083189;28;20048;-71
2022/01/15 11:18:17;;;;;;;9.00;4.60;;;;;;;1.12;84.61;97512.97;5086721;28;20374;-71
2022/01/15 11:20:48;;;;;;;12.43;3.70;;;;;;;1.02;83.83;97502.06;5078184;28;20032;-72
2022/01/15 11:23:16;;;;;;;11.07;4.27;;;;;;;0.91;84.44;97511.09;5086728;28;20064;-71
2022/01/15 11:25:45;;;;;;;9.13;3.83;;;;;;;1.00;83.94;97496.09;5083518;28;20041;-71
2022/01/15 11:28:16;;;;;;;10.30;3.80;;;;;;;0.71;83.85;97514.34;5085731;28;20489;-71
2022/01/15 11:30:45;;;;;;;7.17;3.90;;;;;;;0.64;84.90;97520.63;5075725;28;20044;-71
2022/01/15 11:33:14;;;;;;;12.10;3.57;;;;;;;0.62;85.00;97509.50;5085687;28;20131;-72
2022/01/15 11:35:44;;;;;;;10.47;3.70;;;;;;;0.54;85.65;97521.84;5089328;28;20051;-71
2022/01/15 11:38:11;;;;;;;11.13;3.73;;;;;;;0.91;84.77;97530.09;5092961;28;20044;-71
2022/01/15 11:40:43;;;;;;;11.57;4.20;;;;;;;0.82;84.85;97516.59;5085346;28;20100;-72
2022/01/15 11:43:43;;;;;;;5.43;3.77;;;;;;;0.69;84.41;97516.19;5086812;28;20127;-72
2022/01/15 11:46:28;;;;;;;26.20;4.17;;;;;;;0.84;84.79;97489.75;5072490;28;20079;-71